sensor_id;sensor_type;location;lat;lon;timestamp;P1;durP1;ratioP1;P2;durP2;ratioP2
5821;SDS011;2937;48.562;8.022;2023-04-25T00:03:13;10.50;;;7.40;;
5821;SDS011;2937;48.562;8.022;2023-04-25T00:08:06;9.20;;;6.73;;
5821;SDS011;2937;48.562;8.022;2023-04-25T00:13:00;10.47;;;7.33;;
5821;SDS011;2937;48.562;8.022;2023-04-25T00:17:54;8.80;;;7.30;;
5821;SDS011;2937;48.562;8.022;2023-04-25T00:22:47;7.87;;;6.30;;
5821;SDS011;2937;48.562;8.022;2023-04-25T00:27:40;8.83;;;6.50;;
5821;SDS011;2937;48.562;8.022;2023-04-25T00:32:34;12.23;;;6.00;;
5821;SDS011;2937;48.562;8.022;2023-04-25T00:37:27;7.70;;;5.90;;
5821;SDS011;2937;48.562;8.022;2023-04-25T00:42:20;6.77;;;5.33;;
5821;SDS011;2937;48.562;8.022;2023-04-25T00:47:12;7.73;;;5.20;;
5821;SDS011;2937;48.562;8.022;2023-04-25T00:52:07;8.30;;;5.40;;
5821;SDS011;2937;48.562;8.022;2023-04-25T00:57:00;5.77;;;5.00;;
5821;SDS011;2937;48.562;8.022;2023-04-25T01:01:53;9.80;;;5.70;;
5821;SDS011;2937;48.562;8.022;2023-04-25T01:06:46;11.33;;;5.47;;
5821;SDS011;2937;48.562;8.022;2023-04-25T01:11:40;7.87;;;5.43;;
5821;SDS011;2937;48.562;8.022;2023-04-25T01:16:33;9.47;;;7.17;;
5821;SDS011;2937;48.562;8.022;2023-04-25T01:21:27;10.40;;;6.37;;
5821;SDS011;2937;48.562;8.022;2023-04-25T01:26:21;10.10;;;6.60;;
5821;SDS011;2937;48.562;8.022;2023-04-25T01:31:14;11.17;;;6.20;;
5821;SDS011;2937;48.562;8.022;2023-04-25T01:36:08;7.60;;;6.43;;
5821;SDS011;2937;48.562;8.022;2023-04-25T01:41:03;11.30;;;7.00;;
5821;SDS011;2937;48.562;8.022;2023-04-25T01:45:55;13.80;;;7.30;;
5821;SDS011;2937;48.562;8.022;2023-04-25T01:50:49;9.60;;;7.17;;
5821;SDS011;2937;48.562;8.022;2023-04-25T01:55:41;11.63;;;6.80;;
5821;SDS011;2937;48.562;8.022;2023-04-25T02:00:39;9.70;;;6.73;;
5821;SDS011;2937;48.562;8.022;2023-04-25T02:05:34;10.60;;;7.37;;
5821;SDS011;2937;48.562;8.022;2023-04-25T02:10:27;9.47;;;7.47;;
5821;SDS011;2937;48.562;8.022;2023-04-25T02:15:33;10.40;;;7.27;;
5821;SDS011;2937;48.562;8.022;2023-04-25T02:20:39;9.43;;;7.77;;
5821;SDS011;2937;48.562;8.022;2023-04-25T02:25:32;9.50;;;7.93;;
5821;SDS011;2937;48.562;8.022;2023-04-25T02:30:24;10.40;;;7.43;;
5821;SDS011;2937;48.562;8.022;2023-04-25T02:35:17;10.70;;;7.93;;
5821;SDS011;2937;48.562;8.022;2023-04-25T02:40:11;10.73;;;7.17;;
5821;SDS011;2937;48.562;8.022;2023-04-25T02:45:04;8.77;;;6.90;;
5821;SDS011;2937;48.562;8.022;2023-04-25T02:49:57;10.90;;;7.10;;
5821;SDS011;2937;48.562;8.022;2023-04-25T02:54:49;9.20;;;7.03;;
5821;SDS011;2937;48.562;8.022;2023-04-25T02:59:43;10.60;;;7.00;;
5821;SDS011;2937;48.562;8.022;2023-04-25T03:04:36;9.47;;;6.60;;
5821;SDS011;2937;48.562;8.022;2023-04-25T03:09:29;11.47;;;7.70;;
5821;SDS011;2937;48.562;8.022;2023-04-25T03:14:21;9.30;;;6.93;;
5821;SDS011;2937;48.562;8.022;2023-04-25T03:19:15;11.00;;;7.37;;
5821;SDS011;2937;48.562;8.022;2023-04-25T03:24:08;10.27;;;7.67;;
5821;SDS011;2937;48.562;8.022;2023-04-25T03:29:02;9.27;;;7.27;;
5821;SDS011;2937;48.562;8.022;2023-04-25T03:33:55;12.43;;;7.90;;
5821;SDS011;2937;48.562;8.022;2023-04-25T03:38:49;14.80;;;8.87;;
5821;SDS011;2937;48.562;8.022;2023-04-25T03:43:44;11.67;;;8.17;;
5821;SDS011;2937;48.562;8.022;2023-04-25T03:48:38;10.10;;;8.10;;
5821;SDS011;2937;48.562;8.022;2023-04-25T03:53:32;14.30;;;8.53;;
5821;SDS011;2937;48.562;8.022;2023-04-25T03:58:45;12.20;;;8.20;;
5821;SDS011;2937;48.562;8.022;2023-04-25T04:03:40;10.97;;;7.90;;
5821;SDS011;2937;48.562;8.022;2023-04-25T04:08:33;13.93;;;8.33;;
5821;SDS011;2937;48.562;8.022;2023-04-25T04:13:27;9.63;;;7.80;;
5821;SDS011;2937;48.562;8.022;2023-04-25T04:18:21;13.13;;;9.00;;
5821;SDS011;2937;48.562;8.022;2023-04-25T04:23:14;10.63;;;8.63;;
5821;SDS011;2937;48.562;8.022;2023-04-25T04:28:07;10.13;;;7.70;;
5821;SDS011;2937;48.562;8.022;2023-04-25T04:33:06;12.40;;;9.10;;
5821;SDS011;2937;48.562;8.022;2023-04-25T04:38:01;14.17;;;11.13;;
5821;SDS011;2937;48.562;8.022;2023-04-25T04:42:57;14.70;;;10.67;;
5821;SDS011;2937;48.562;8.022;2023-04-25T04:48:07;14.43;;;10.50;;
5821;SDS011;2937;48.562;8.022;2023-04-25T04:53:21;11.70;;;9.10;;
5821;SDS011;2937;48.562;8.022;2023-04-25T04:58:32;8.80;;;7.30;;
5821;SDS011;2937;48.562;8.022;2023-04-25T05:03:55;14.03;;;7.20;;
5821;SDS011;2937;48.562;8.022;2023-04-25T05:09:08;7.97;;;6.87;;
5821;SDS011;2937;48.562;8.022;2023-04-25T05:14:10;9.27;;;7.20;;
5821;SDS011;2937;48.562;8.022;2023-04-25T05:19:16;9.70;;;7.00;;
5821;SDS011;2937;48.562;8.022;2023-04-25T05:24:29;8.83;;;6.07;;
5821;SDS011;2937;48.562;8.022;2023-04-25T05:29:51;9.63;;;6.13;;
5821;SDS011;2937;48.562;8.022;2023-04-25T05:34:51;6.93;;;5.57;;
5821;SDS011;2937;48.562;8.022;2023-04-25T05:39:50;8.03;;;6.23;;
5821;SDS011;2937;48.562;8.022;2023-04-25T05:45:09;8.70;;;6.90;;
5821;SDS011;2937;48.562;8.022;2023-04-25T05:50:11;10.17;;;8.43;;
5821;SDS011;2937;48.562;8.022;2023-04-25T05:55:14;10.73;;;8.70;;
5821;SDS011;2937;48.562;8.022;2023-04-25T06:00:08;14.23;;;10.23;;
5821;SDS011;2937;48.562;8.022;2023-04-25T06:05:04;11.30;;;8.90;;
5821;SDS011;2937;48.562;8.022;2023-04-25T06:09:58;11.70;;;8.47;;
5821;SDS011;2937;48.562;8.022;2023-04-25T06:14:52;12.70;;;9.60;;
5821;SDS011;2937;48.562;8.022;2023-04-25T06:19:45;14.63;;;10.50;;
5821;SDS011;2937;48.562;8.022;2023-04-25T06:24:38;17.57;;;11.23;;
5821;SDS011;2937;48.562;8.022;2023-04-25T06:29:31;14.33;;;10.33;;
5821;SDS011;2937;48.562;8.022;2023-04-25T06:34:26;13.97;;;9.70;;
5821;SDS011;2937;48.562;8.022;2023-04-25T06:39:18;15.87;;;10.10;;
5821;SDS011;2937;48.562;8.022;2023-04-25T06:44:14;17.10;;;12.43;;
5821;SDS011;2937;48.562;8.022;2023-04-25T06:49:16;19.80;;;12.37;;
5821;SDS011;2937;48.562;8.022;2023-04-25T06:54:10;18.20;;;11.77;;
5821;SDS011;2937;48.562;8.022;2023-04-25T06:59:12;13.17;;;8.37;;
5821;SDS011;2937;48.562;8.022;2023-04-25T07:04:06;14.90;;;8.97;;
5821;SDS011;2937;48.562;8.022;2023-04-25T07:09:04;16.63;;;9.97;;
5821;SDS011;2937;48.562;8.022;2023-04-25T07:13:58;10.40;;;7.40;;
5821;SDS011;2937;48.562;8.022;2023-04-25T07:18:51;6.20;;;4.90;;
5821;SDS011;2937;48.562;8.022;2023-04-25T07:23:44;5.60;;;4.80;;
5821;SDS011;2937;48.562;8.022;2023-04-25T07:28:42;6.07;;;4.70;;
5821;SDS011;2937;48.562;8.022;2023-04-25T07:33:36;6.10;;;4.77;;
5821;SDS011;2937;48.562;8.022;2023-04-25T07:38:28;6.90;;;5.47;;
5821;SDS011;2937;48.562;8.022;2023-04-25T07:43:21;7.40;;;5.47;;
5821;SDS011;2937;48.562;8.022;2023-04-25T07:48:19;9.13;;;6.03;;
5821;SDS011;2937;48.562;8.022;2023-04-25T07:53:16;8.47;;;6.10;;
5821;SDS011;2937;48.562;8.022;2023-04-25T07:58:16;5.90;;;4.50;;
5821;SDS011;2937;48.562;8.022;2023-04-25T08:03:15;3.07;;;2.77;;
5821;SDS011;2937;48.562;8.022;2023-04-25T08:08:09;3.17;;;2.70;;
5821;SDS011;2937;48.562;8.022;2023-04-25T08:13:03;3.20;;;2.57;;
5821;SDS011;2937;48.562;8.022;2023-04-25T08:17:56;2.57;;;2.20;;
5821;SDS011;2937;48.562;8.022;2023-04-25T08:22:49;4.90;;;3.23;;
5821;SDS011;2937;48.562;8.022;2023-04-25T08:28:06;4.73;;;2.83;;
5821;SDS011;2937;48.562;8.022;2023-04-25T08:32:59;3.30;;;3.00;;
5821;SDS011;2937;48.562;8.022;2023-04-25T08:38:10;3.30;;;3.00;;
5821;SDS011;2937;48.562;8.022;2023-04-25T08:43:03;3.87;;;3.47;;
5821;SDS011;2937;48.562;8.022;2023-04-25T08:47:58;4.60;;;3.30;;
5821;SDS011;2937;48.562;8.022;2023-04-25T08:52:51;3.70;;;2.37;;
5821;SDS011;2937;48.562;8.022;2023-04-25T08:57:46;2.30;;;2.10;;
5821;SDS011;2937;48.562;8.022;2023-04-25T09:02:40;2.30;;;2.00;;
5821;SDS011;2937;48.562;8.022;2023-04-25T09:07:36;5.97;;;2.27;;
5821;SDS011;2937;48.562;8.022;2023-04-25T09:12:29;2.77;;;2.47;;
5821;SDS011;2937;48.562;8.022;2023-04-25T09:17:23;1.90;;;1.80;;
5821;SDS011;2937;48.562;8.022;2023-04-25T09:22:18;2.17;;;1.97;;
5821;SDS011;2937;48.562;8.022;2023-04-25T09:27:19;3.37;;;3.07;;
5821;SDS011;2937;48.562;8.022;2023-04-25T09:32:19;2.37;;;1.90;;
5821;SDS011;2937;48.562;8.022;2023-04-25T09:37:18;1.90;;;1.80;;
5821;SDS011;2937;48.562;8.022;2023-04-25T09:42:42;4.73;;;4.20;;
5821;SDS011;2937;48.562;8.022;2023-04-25T09:47:36;4.30;;;3.80;;
5821;SDS011;2937;48.562;8.022;2023-04-25T09:52:31;6.50;;;5.10;;
5821;SDS011;2937;48.562;8.022;2023-04-25T09:57:35;11.60;;;9.03;;
5821;SDS011;2937;48.562;8.022;2023-04-25T10:02:32;21.80;;;14.83;;
5821;SDS011;2937;48.562;8.022;2023-04-25T10:07:30;10.40;;;8.83;;
5821;SDS011;2937;48.562;8.022;2023-04-25T10:12:24;9.00;;;7.10;;
5821;SDS011;2937;48.562;8.022;2023-04-25T10:17:18;11.80;;;10.50;;
5821;SDS011;2937;48.562;8.022;2023-04-25T10:22:14;9.63;;;8.47;;
5821;SDS011;2937;48.562;8.022;2023-04-25T10:27:09;9.53;;;8.53;;
5821;SDS011;2937;48.562;8.022;2023-04-25T10:32:03;5.67;;;5.03;;
5821;SDS011;2937;48.562;8.022;2023-04-25T10:36:56;6.37;;;5.77;;
5821;SDS011;2937;48.562;8.022;2023-04-25T10:41:54;5.73;;;5.17;;
5821;SDS011;2937;48.562;8.022;2023-04-25T10:46:47;3.70;;;3.40;;
5821;SDS011;2937;48.562;8.022;2023-04-25T10:51:41;3.17;;;2.87;;
5821;SDS011;2937;48.562;8.022;2023-04-25T10:56:41;4.43;;;2.70;;
5821;SDS011;2937;48.562;8.022;2023-04-25T11:01:38;2.20;;;2.00;;
5821;SDS011;2937;48.562;8.022;2023-04-25T11:06:34;2.10;;;1.90;;
5821;SDS011;2937;48.562;8.022;2023-04-25T11:11:30;1.70;;;1.60;;
5821;SDS011;2937;48.562;8.022;2023-04-25T11:16:23;2.17;;;1.97;;
5821;SDS011;2937;48.562;8.022;2023-04-25T11:21:20;3.57;;;2.40;;
5821;SDS011;2937;48.562;8.022;2023-04-25T11:26:13;2.73;;;1.80;;
5821;SDS011;2937;48.562;8.022;2023-04-25T11:31:06;2.10;;;1.90;;
5821;SDS011;2937;48.562;8.022;2023-04-25T11:36:01;2.30;;;2.10;;
5821;SDS011;2937;48.562;8.022;2023-04-25T11:40:55;2.50;;;2.30;;
5821;SDS011;2937;48.562;8.022;2023-04-25T11:45:47;2.93;;;1.87;;
5821;SDS011;2937;48.562;8.022;2023-04-25T11:50:40;2.20;;;2.00;;
5821;SDS011;2937;48.562;8.022;2023-04-25T11:55:33;2.40;;;2.20;;
5821;SDS011;2937;48.562;8.022;2023-04-25T12:00:28;2.77;;;2.33;;
5821;SDS011;2937;48.562;8.022;2023-04-25T12:05:23;3.70;;;2.93;;
5821;SDS011;2937;48.562;8.022;2023-04-25T12:10:24;3.40;;;3.10;;
5821;SDS011;2937;48.562;8.022;2023-04-25T12:15:17;3.03;;;2.73;;
5821;SDS011;2937;48.562;8.022;2023-04-25T12:20:13;3.97;;;3.20;;
5821;SDS011;2937;48.562;8.022;2023-04-25T12:25:09;3.30;;;2.90;;
5821;SDS011;2937;48.562;8.022;2023-04-25T12:30:02;4.50;;;4.10;;
5821;SDS011;2937;48.562;8.022;2023-04-25T12:34:56;5.37;;;4.70;;
5821;SDS011;2937;48.562;8.022;2023-04-25T12:39:50;9.57;;;4.50;;
5821;SDS011;2937;48.562;8.022;2023-04-25T12:44:43;6.37;;;4.97;;
5821;SDS011;2937;48.562;8.022;2023-04-25T12:49:36;5.47;;;4.53;;
5821;SDS011;2937;48.562;8.022;2023-04-25T12:54:28;4.70;;;4.30;;
5821;SDS011;2937;48.562;8.022;2023-04-25T12:59:23;4.50;;;2.00;;
5821;SDS011;2937;48.562;8.022;2023-04-25T13:04:15;3.30;;;1.80;;
5821;SDS011;2937;48.562;8.022;2023-04-25T13:09:09;14.23;;;8.00;;
5821;SDS011;2937;48.562;8.022;2023-04-25T13:14:04;0.80;;;0.70;;
5821;SDS011;2937;48.562;8.022;2023-04-25T13:18:58;0.80;;;0.80;;
5821;SDS011;2937;48.562;8.022;2023-04-25T13:23:51;0.80;;;0.80;;
5821;SDS011;2937;48.562;8.022;2023-04-25T13:28:44;0.80;;;0.80;;
5821;SDS011;2937;48.562;8.022;2023-04-25T13:33:37;0.80;;;0.70;;
5821;SDS011;2937;48.562;8.022;2023-04-25T13:38:31;0.80;;;0.80;;
5821;SDS011;2937;48.562;8.022;2023-04-25T13:43:24;0.80;;;0.70;;
5821;SDS011;2937;48.562;8.022;2023-04-25T13:48:17;1.73;;;1.57;;
5821;SDS011;2937;48.562;8.022;2023-04-25T13:53:10;0.80;;;0.70;;
5821;SDS011;2937;48.562;8.022;2023-04-25T13:58:04;0.80;;;0.70;;
5821;SDS011;2937;48.562;8.022;2023-04-25T14:02:59;0.80;;;0.60;;
5821;SDS011;2937;48.562;8.022;2023-04-25T14:07:52;0.80;;;0.60;;
5821;SDS011;2937;48.562;8.022;2023-04-25T14:12:44;0.80;;;0.70;;
5821;SDS011;2937;48.562;8.022;2023-04-25T14:17:38;0.97;;;0.80;;
5821;SDS011;2937;48.562;8.022;2023-04-25T14:22:31;0.80;;;0.60;;
5821;SDS011;2937;48.562;8.022;2023-04-25T14:27:24;0.80;;;0.60;;
5821;SDS011;2937;48.562;8.022;2023-04-25T14:32:19;4.10;;;3.10;;
5821;SDS011;2937;48.562;8.022;2023-04-25T14:37:14;4.00;;;3.50;;
5821;SDS011;2937;48.562;8.022;2023-04-25T14:42:07;3.90;;;3.10;;
5821;SDS011;2937;48.562;8.022;2023-04-25T14:47:00;3.30;;;3.00;;
5821;SDS011;2937;48.562;8.022;2023-04-25T14:51:52;3.10;;;2.80;;
5821;SDS011;2937;48.562;8.022;2023-04-25T14:56:47;3.03;;;2.73;;
5821;SDS011;2937;48.562;8.022;2023-04-25T15:01:39;2.60;;;2.40;;
5821;SDS011;2937;48.562;8.022;2023-04-25T15:06:33;3.00;;;2.70;;
5821;SDS011;2937;48.562;8.022;2023-04-25T15:11:25;3.70;;;2.97;;
5821;SDS011;2937;48.562;8.022;2023-04-25T15:16:19;4.80;;;3.47;;
5821;SDS011;2937;48.562;8.022;2023-04-25T15:21:12;3.33;;;2.93;;
5821;SDS011;2937;48.562;8.022;2023-04-25T15:26:05;2.93;;;2.70;;
5821;SDS011;2937;48.562;8.022;2023-04-25T15:30:57;3.30;;;3.00;;
5821;SDS011;2937;48.562;8.022;2023-04-25T15:35:51;3.80;;;3.30;;
5821;SDS011;2937;48.562;8.022;2023-04-25T15:40:44;3.80;;;3.50;;
5821;SDS011;2937;48.562;8.022;2023-04-25T15:45:37;4.20;;;3.53;;
5821;SDS011;2937;48.562;8.022;2023-04-25T15:50:30;3.60;;;3.30;;
5821;SDS011;2937;48.562;8.022;2023-04-25T15:55:24;3.50;;;3.20;;
5821;SDS011;2937;48.562;8.022;2023-04-25T16:00:18;4.00;;;3.53;;
5821;SDS011;2937;48.562;8.022;2023-04-25T16:05:12;4.77;;;4.27;;
5821;SDS011;2937;48.562;8.022;2023-04-25T16:10:06;6.23;;;5.50;;
5821;SDS011;2937;48.562;8.022;2023-04-25T16:15:00;4.27;;;3.87;;
5821;SDS011;2937;48.562;8.022;2023-04-25T16:19:53;6.63;;;5.30;;
5821;SDS011;2937;48.562;8.022;2023-04-25T16:24:46;5.10;;;3.80;;
5821;SDS011;2937;48.562;8.022;2023-04-25T16:29:38;7.13;;;5.07;;
5821;SDS011;2937;48.562;8.022;2023-04-25T16:34:32;7.90;;;5.73;;
5821;SDS011;2937;48.562;8.022;2023-04-25T16:39:25;7.00;;;6.00;;
5821;SDS011;2937;48.562;8.022;2023-04-25T16:44:18;5.03;;;3.93;;
5821;SDS011;2937;48.562;8.022;2023-04-25T16:49:10;7.20;;;4.60;;
5821;SDS011;2937;48.562;8.022;2023-04-25T16:54:04;7.30;;;4.90;;
5821;SDS011;2937;48.562;8.022;2023-04-25T16:59:00;6.40;;;4.23;;
5821;SDS011;2937;48.562;8.022;2023-04-25T17:03:53;5.47;;;4.60;;
5821;SDS011;2937;48.562;8.022;2023-04-25T17:08:46;6.10;;;4.77;;
5821;SDS011;2937;48.562;8.022;2023-04-25T17:13:43;6.40;;;5.30;;
5821;SDS011;2937;48.562;8.022;2023-04-25T17:18:36;7.87;;;5.23;;
5821;SDS011;2937;48.562;8.022;2023-04-25T17:23:29;12.00;;;10.27;;
5821;SDS011;2937;48.562;8.022;2023-04-25T17:28:22;10.13;;;8.17;;
5821;SDS011;2937;48.562;8.022;2023-04-25T17:33:16;12.97;;;11.17;;
5821;SDS011;2937;48.562;8.022;2023-04-25T17:38:09;16.97;;;12.67;;
5821;SDS011;2937;48.562;8.022;2023-04-25T17:43:01;11.30;;;8.70;;
5821;SDS011;2937;48.562;8.022;2023-04-25T17:47:54;13.77;;;10.20;;
5821;SDS011;2937;48.562;8.022;2023-04-25T17:52:48;16.37;;;12.60;;
5821;SDS011;2937;48.562;8.022;2023-04-25T17:57:41;15.03;;;10.80;;
5821;SDS011;2937;48.562;8.022;2023-04-25T18:02:33;15.30;;;11.50;;
5821;SDS011;2937;48.562;8.022;2023-04-25T18:07:27;13.07;;;8.53;;
5821;SDS011;2937;48.562;8.022;2023-04-25T18:12:21;11.87;;;7.90;;
5821;SDS011;2937;48.562;8.022;2023-04-25T18:17:13;12.30;;;9.40;;
5821;SDS011;2937;48.562;8.022;2023-04-25T18:22:07;13.53;;;8.73;;
5821;SDS011;2937;48.562;8.022;2023-04-25T18:27:00;12.80;;;9.73;;
5821;SDS011;2937;48.562;8.022;2023-04-25T18:31:59;39.73;;;24.90;;
5821;SDS011;2937;48.562;8.022;2023-04-25T18:36:55;12.80;;;9.37;;
5821;SDS011;2937;48.562;8.022;2023-04-25T18:41:48;12.27;;;8.33;;
5821;SDS011;2937;48.562;8.022;2023-04-25T18:46:50;13.70;;;9.00;;
5821;SDS011;2937;48.562;8.022;2023-04-25T18:51:44;11.90;;;8.60;;
5821;SDS011;2937;48.562;8.022;2023-04-25T18:56:39;15.60;;;10.43;;
5821;SDS011;2937;48.562;8.022;2023-04-25T19:01:36;13.00;;;8.97;;
5821;SDS011;2937;48.562;8.022;2023-04-25T19:06:29;15.47;;;9.90;;
5821;SDS011;2937;48.562;8.022;2023-04-25T19:11:23;15.30;;;9.33;;
5821;SDS011;2937;48.562;8.022;2023-04-25T19:16:16;13.43;;;9.20;;
5821;SDS011;2937;48.562;8.022;2023-04-25T19:21:09;18.90;;;12.27;;
5821;SDS011;2937;48.562;8.022;2023-04-25T19:26:02;19.97;;;13.30;;
5821;SDS011;2937;48.562;8.022;2023-04-25T19:30:56;20.80;;;12.93;;
5821;SDS011;2937;48.562;8.022;2023-04-25T19:35:49;19.70;;;12.50;;
5821;SDS011;2937;48.562;8.022;2023-04-25T19:40:42;15.50;;;11.00;;
5821;SDS011;2937;48.562;8.022;2023-04-25T19:45:35;16.80;;;11.50;;
5821;SDS011;2937;48.562;8.022;2023-04-25T19:50:30;16.43;;;10.43;;
5821;SDS011;2937;48.562;8.022;2023-04-25T19:55:23;20.20;;;14.53;;
5821;SDS011;2937;48.562;8.022;2023-04-25T20:00:17;21.23;;;15.60;;
5821;SDS011;2937;48.562;8.022;2023-04-25T20:05:11;20.60;;;14.97;;
5821;SDS011;2937;48.562;8.022;2023-04-25T20:10:06;20.37;;;14.17;;
5821;SDS011;2937;48.562;8.022;2023-04-25T20:14:59;20.40;;;13.47;;
5821;SDS011;2937;48.562;8.022;2023-04-25T20:19:52;25.10;;;15.40;;
5821;SDS011;2937;48.562;8.022;2023-04-25T20:24:44;20.60;;;13.77;;
5821;SDS011;2937;48.562;8.022;2023-04-25T20:29:38;28.00;;;17.87;;
5821;SDS011;2937;48.562;8.022;2023-04-25T20:34:32;26.63;;;15.20;;
5821;SDS011;2937;48.562;8.022;2023-04-25T20:39:25;23.10;;;14.10;;
5821;SDS011;2937;48.562;8.022;2023-04-25T20:44:17;22.60;;;14.80;;
5821;SDS011;2937;48.562;8.022;2023-04-25T20:49:14;23.50;;;13.10;;
5821;SDS011;2937;48.562;8.022;2023-04-25T20:54:07;24.40;;;13.80;;
5821;SDS011;2937;48.562;8.022;2023-04-25T20:59:02;28.67;;;15.50;;
5821;SDS011;2937;48.562;8.022;2023-04-25T21:03:55;30.97;;;17.73;;
5821;SDS011;2937;48.562;8.022;2023-04-25T21:08:49;32.07;;;18.37;;
5821;SDS011;2937;48.562;8.022;2023-04-25T21:13:43;32.23;;;18.60;;
5821;SDS011;2937;48.562;8.022;2023-04-25T21:18:36;29.13;;;17.37;;
5821;SDS011;2937;48.562;8.022;2023-04-25T21:23:28;26.67;;;15.70;;
5821;SDS011;2937;48.562;8.022;2023-04-25T21:28:22;31.80;;;17.50;;
5821;SDS011;2937;48.562;8.022;2023-04-25T21:33:15;29.43;;;16.50;;
5821;SDS011;2937;48.562;8.022;2023-04-25T21:38:08;21.70;;;14.10;;
5821;SDS011;2937;48.562;8.022;2023-04-25T21:43:00;20.30;;;12.47;;
5821;SDS011;2937;48.562;8.022;2023-04-25T21:47:55;19.37;;;10.90;;
5821;SDS011;2937;48.562;8.022;2023-04-25T21:52:48;15.93;;;9.80;;
5821;SDS011;2937;48.562;8.022;2023-04-25T21:57:40;15.40;;;9.60;;
5821;SDS011;2937;48.562;8.022;2023-04-25T22:02:33;12.90;;;9.10;;
5821;SDS011;2937;48.562;8.022;2023-04-25T22:07:28;12.60;;;8.47;;
5821;SDS011;2937;48.562;8.022;2023-04-25T22:12:21;9.60;;;6.80;;
5821;SDS011;2937;48.562;8.022;2023-04-25T22:17:14;11.80;;;7.17;;
5821;SDS011;2937;48.562;8.022;2023-04-25T22:22:08;9.83;;;7.30;;
5821;SDS011;2937;48.562;8.022;2023-04-25T22:27:03;9.70;;;7.20;;
5821;SDS011;2937;48.562;8.022;2023-04-25T22:31:56;24.67;;;16.07;;
5821;SDS011;2937;48.562;8.022;2023-04-25T22:36:49;24.93;;;17.77;;
5821;SDS011;2937;48.562;8.022;2023-04-25T22:41:41;18.90;;;12.83;;
5821;SDS011;2937;48.562;8.022;2023-04-25T22:46:36;17.40;;;11.27;;
5821;SDS011;2937;48.562;8.022;2023-04-25T22:51:29;15.03;;;11.17;;
5821;SDS011;2937;48.562;8.022;2023-04-25T22:56:22;18.13;;;10.87;;
5821;SDS011;2937;48.562;8.022;2023-04-25T23:01:15;14.90;;;10.87;;
5821;SDS011;2937;48.562;8.022;2023-04-25T23:06:11;13.10;;;9.50;;
5821;SDS011;2937;48.562;8.022;2023-04-25T23:11:04;11.67;;;9.40;;
5821;SDS011;2937;48.562;8.022;2023-04-25T23:16:00;11.90;;;8.90;;
5821;SDS011;2937;48.562;8.022;2023-04-25T23:20:55;15.77;;;9.40;;
5821;SDS011;2937;48.562;8.022;2023-04-25T23:25:50;10.77;;;8.43;;
5821;SDS011;2937;48.562;8.022;2023-04-25T23:30:44;14.20;;;9.97;;
5821;SDS011;2937;48.562;8.022;2023-04-25T23:35:36;11.13;;;8.63;;
5821;SDS011;2937;48.562;8.022;2023-04-25T23:40:29;15.30;;;8.87;;
5821;SDS011;2937;48.562;8.022;2023-04-25T23:45:23;10.63;;;7.90;;
5821;SDS011;2937;48.562;8.022;2023-04-25T23:50:16;10.83;;;8.17;;
5821;SDS011;2937;48.562;8.022;2023-04-25T23:55:09;13.67;;;8.80;;
